createdAt,value
2023-05-10T00:02:05.308Z,69.16
2023-05-10T00:04:32.150Z,68.99
2023-05-10T00:06:59.078Z,68.80
2023-05-10T00:09:25.939Z,68.92
2023-05-10T00:11:52.718Z,69.36
2023-05-10T00:14:19.789Z,69.16
2023-05-10T00:16:46.611Z,69.19
2023-05-10T00:19:13.519Z,68.81
2023-05-10T00:21:40.402Z,69.15
2023-05-10T00:24:07.269Z,68.87
2023-05-10T00:26:34.096Z,68.39
2023-05-10T00:29:01.550Z,68.29
2023-05-10T00:31:28.392Z,67.74
2023-05-10T00:33:55.779Z,67.67
2023-05-10T00:36:22.591Z,67.36
2023-05-10T00:38:49.330Z,67.21
2023-05-10T00:41:16.722Z,67.41
2023-05-10T00:43:44.539Z,66.87
2023-05-10T00:46:11.992Z,67.15
2023-05-10T00:48:39.193Z,67.25
2023-05-10T00:51:06.140Z,66.97
2023-05-10T00:53:33.904Z,66.94
2023-05-10T00:56:00.856Z,67.15
2023-05-10T00:58:29.374Z,67.24
2023-05-10T01:00:59.822Z,67.64
2023-05-10T01:03:40.828Z,67.89
2023-05-10T01:06:16.905Z,67.98
2023-05-10T01:08:43.873Z,68.17
2023-05-10T01:11:10.888Z,68.65
2023-05-10T01:13:40.488Z,68.90
2023-05-10T01:16:08.092Z,68.94
2023-05-10T01:18:41.620Z,69.47
2023-05-10T01:24:23.587Z,69.78
2023-05-10T01:27:14.530Z,70.21
2023-05-10T01:30:21.892Z,70.67
2023-05-10T01:32:57.763Z,70.96
2023-05-10T01:35:35.707Z,70.88
2023-05-10T01:38:38.344Z,71.20
2023-05-10T01:41:07.962Z,71.35
2023-05-10T01:43:58.473Z,71.25
2023-05-10T01:46:34.153Z,71.38
2023-05-10T01:49:03.479Z,71.57
2023-05-10T01:51:40.755Z,71.45
2023-05-10T01:54:11.846Z,71.36
2023-05-10T01:56:41.240Z,71.12
2023-05-10T01:59:16.449Z,71.14
2023-05-10T02:01:45.123Z,71.21
2023-05-10T02:04:14.659Z,70.78
2023-05-10T02:06:43.672Z,70.76
2023-05-10T02:09:12.959Z,70.78
2023-05-10T02:11:40.707Z,70.87
2023-05-10T02:14:09.930Z,71.03
2023-05-10T02:16:39.144Z,71.13
2023-05-10T02:19:07.355Z,71.00
2023-05-10T02:21:35.479Z,71.16
2023-05-10T02:24:05.265Z,70.88
2023-05-10T02:26:36.290Z,70.56
2023-05-10T02:29:04.859Z,70.22
2023-05-10T02:31:34.025Z,70.39
2023-05-10T02:34:02.589Z,70.33
2023-05-10T02:36:30.767Z,70.00
2023-05-10T02:38:59.570Z,70.15
2023-05-10T02:41:27.484Z,70.18
2023-05-10T02:44:00.308Z,70.12
2023-05-10T02:46:27.200Z,69.84
2023-05-10T02:48:54.088Z,69.77
2023-05-10T02:51:25.700Z,70.06
2023-05-10T02:53:56.215Z,69.91
2023-05-10T02:56:52.244Z,70.37
2023-05-10T02:59:19.390Z,70.21
2023-05-10T03:01:46.276Z,70.37
2023-05-10T03:04:13.316Z,70.64
2023-05-10T03:06:40.486Z,70.68
2023-05-10T03:09:08.845Z,70.85
2023-05-10T03:11:50.567Z,70.90
2023-05-10T03:14:35.737Z,70.89
2023-05-10T03:17:10.095Z,70.75
2023-05-10T03:19:54.130Z,70.69
2023-05-10T03:22:38.276Z,70.92
2023-05-10T03:25:09.379Z,70.38
2023-05-10T03:27:37.771Z,70.43
2023-05-10T03:30:07.294Z,70.06
2023-05-10T03:32:35.805Z,69.50
2023-05-10T03:35:10.542Z,69.11
2023-05-10T03:37:37.841Z,68.11
2023-05-10T03:40:06.417Z,67.41
2023-05-10T03:42:35.436Z,65.42
2023-05-10T03:45:02.299Z,63.41
2023-05-10T03:47:30.779Z,62.20
2023-05-10T03:49:58.461Z,60.73
2023-05-10T03:52:25.290Z,59.71
2023-05-10T03:54:52.157Z,58.92
2023-05-10T03:57:18.958Z,58.11
2023-05-10T03:59:46.357Z,57.62
2023-05-10T04:02:13.281Z,57.18
2023-05-10T04:04:40.132Z,57.29
2023-05-10T04:07:06.961Z,57.10
2023-05-10T04:09:34.572Z,57.07
2023-05-10T04:12:03.402Z,57.36
2023-05-10T04:14:30.353Z,57.36
2023-05-10T04:16:57.078Z,57.40
2023-05-10T04:19:24.390Z,57.91
2023-05-10T04:21:51.227Z,57.44
2023-05-10T04:24:18.029Z,57.25
2023-05-10T04:26:44.840Z,57.61
2023-05-10T04:29:11.563Z,57.88
2023-05-10T04:31:38.402Z,59.00
2023-05-10T04:34:05.360Z,59.93
2023-05-10T04:36:33.579Z,60.49
2023-05-10T04:39:00.416Z,60.49
2023-05-10T04:41:27.296Z,60.62
2023-05-10T04:43:54.033Z,60.92
2023-05-10T04:46:20.827Z,60.76
2023-05-10T04:48:47.655Z,61.11
2023-05-10T04:51:14.608Z,61.77
2023-05-10T04:53:43.014Z,61.36
2023-05-10T04:56:11.483Z,61.49
2023-05-10T04:58:38.354Z,60.68
2023-05-10T05:01:10.442Z,60.81
2023-05-10T05:03:38.172Z,59.82
2023-05-10T05:06:05.184Z,59.90
2023-05-10T05:08:32.270Z,59.04
2023-05-10T05:11:00.414Z,58.53
2023-05-10T05:13:27.285Z,59.89
2023-05-10T05:15:54.614Z,60.48
2023-05-10T05:18:21.546Z,59.73
2023-05-10T05:20:48.249Z,60.35
2023-05-10T05:23:16.361Z,56.00
2023-05-10T05:25:43.269Z,60.72
2023-05-10T05:28:10.016Z,57.42
2023-05-10T05:30:36.853Z,55.78
2023-05-10T05:33:04.056Z,55.35
2023-05-10T05:35:30.959Z,55.79
2023-05-10T05:37:57.712Z,53.43
2023-05-10T05:40:24.507Z,55.88
2023-05-10T05:42:51.299Z,54.26
2023-05-10T05:45:18.357Z,54.55
2023-05-10T05:47:45.596Z,53.55
2023-05-10T05:50:12.521Z,53.48
2023-05-10T05:52:39.383Z,53.63
2023-05-10T05:55:06.412Z,53.61
2023-05-10T05:57:33.120Z,53.46
2023-05-10T06:00:00.581Z,52.86
2023-05-10T06:02:27.555Z,52.91
2023-05-10T06:04:54.343Z,52.30
2023-05-10T06:07:21.307Z,52.46
2023-05-10T06:09:48.093Z,52.16
2023-05-10T06:12:14.880Z,52.18
2023-05-10T06:14:41.763Z,51.87
2023-05-10T06:17:08.544Z,52.09
2023-05-10T06:19:35.302Z,51.64
2023-05-10T06:22:02.663Z,51.68
2023-05-10T06:24:29.597Z,51.54
2023-05-10T06:26:56.355Z,50.92
2023-05-10T06:29:23.147Z,51.25
2023-05-10T06:31:50.053Z,51.15
2023-05-10T06:34:16.811Z,50.86
2023-05-10T06:36:44.024Z,50.28
2023-05-10T06:39:12.680Z,50.20
2023-05-10T06:41:39.460Z,50.84
2023-05-10T06:44:06.318Z,51.15
2023-05-10T06:46:33.168Z,50.72
2023-05-10T06:48:59.963Z,50.78
2023-05-10T06:51:27.150Z,51.03
2023-05-10T06:53:54.105Z,50.55
2023-05-10T06:56:22.464Z,50.43
2023-05-10T06:58:49.547Z,50.96
2023-05-10T07:01:16.534Z,50.86
2023-05-10T07:03:43.465Z,50.76
2023-05-10T07:06:21.577Z,50.96
2023-05-10T07:08:56.890Z,50.72
2023-05-10T07:11:23.668Z,50.95
2023-05-10T07:13:50.388Z,50.71
2023-05-10T07:16:17.447Z,50.98
2023-05-10T07:18:44.284Z,50.39
2023-05-10T07:21:11.415Z,50.27
2023-05-10T07:23:38.182Z,50.35
2023-05-10T07:26:05.117Z,50.84
2023-05-10T07:28:31.896Z,50.49
2023-05-10T07:30:58.703Z,50.67
2023-05-10T07:33:25.459Z,50.37
2023-05-10T07:35:52.673Z,50.16
2023-05-10T07:38:19.485Z,50.38
2023-05-10T07:40:46.223Z,50.29
2023-05-10T07:43:12.998Z,49.63
2023-05-10T07:45:39.827Z,49.41
2023-05-10T07:48:06.641Z,49.28
2023-05-10T07:50:33.452Z,49.24
2023-05-10T07:53:00.257Z,49.80
2023-05-10T07:55:27.350Z,49.77
2023-05-10T07:57:54.121Z,49.83
2023-05-10T08:00:21.682Z,49.45
2023-05-10T08:02:49.144Z,49.26
2023-05-10T08:05:16.663Z,49.59
2023-05-10T08:07:43.614Z,50.21
2023-05-10T08:10:11.972Z,48.91
2023-05-10T08:12:39.306Z,48.99
2023-05-10T08:15:07.685Z,47.84
2023-05-10T08:17:34.564Z,47.81
2023-05-10T08:20:01.434Z,48.13
2023-05-10T08:22:28.477Z,47.88
2023-05-10T08:24:55.226Z,47.65
2023-05-10T08:27:22.237Z,47.29
2023-05-10T08:29:50.496Z,47.84
2023-05-10T08:32:18.082Z,47.96
2023-05-10T08:34:44.875Z,48.14
2023-05-10T08:37:14.328Z,47.43
2023-05-10T08:39:41.454Z,47.50
2023-05-10T08:42:10.320Z,46.08
2023-05-10T08:44:38.162Z,46.42
2023-05-10T08:47:11.378Z,46.51
2023-05-10T08:49:38.634Z,46.90
2023-05-10T08:52:08.082Z,48.03
2023-05-10T08:54:35.592Z,49.92
2023-05-10T08:57:02.692Z,50.96
2023-05-10T08:59:29.898Z,51.76
2023-05-10T09:02:00.546Z,52.17
2023-05-10T09:04:27.553Z,53.99
2023-05-10T09:06:55.188Z,53.07
2023-05-10T09:09:22.795Z,56.34
2023-05-10T09:11:50.152Z,56.75
2023-05-10T09:14:18.337Z,56.76
2023-05-10T09:16:45.215Z,56.44
2023-05-10T09:19:12.179Z,55.49
2023-05-10T09:21:39.379Z,55.68
2023-05-10T09:24:09.912Z,57.50
2023-05-10T09:26:46.373Z,58.16
2023-05-10T09:29:15.176Z,57.96
2023-05-10T09:31:53.131Z,57.12
2023-05-10T09:34:22.009Z,57.33
2023-05-10T09:37:07.244Z,56.95
2023-05-10T09:39:40.427Z,57.60
2023-05-10T09:42:10.021Z,57.92
2023-05-10T09:44:37.945Z,58.55
2023-05-10T09:47:05.358Z,58.50
2023-05-10T09:49:32.272Z,59.18
2023-05-10T09:52:06.384Z,60.67
2023-05-10T09:54:34.336Z,60.56
2023-05-10T09:57:01.897Z,60.16
2023-05-10T09:59:29.816Z,60.24
2023-05-10T10:01:58.533Z,60.21
2023-05-10T10:04:25.639Z,59.87
2023-05-10T10:07:05.726Z,59.47
2023-05-10T10:09:33.672Z,59.22
2023-05-10T10:12:02.012Z,59.54
2023-05-10T10:14:30.126Z,58.74
2023-05-10T10:17:07.214Z,59.30
2023-05-10T10:19:36.762Z,59.10
2023-05-10T10:22:04.208Z,59.54
2023-05-10T10:24:31.197Z,59.26
2023-05-10T10:27:06.242Z,58.96
2023-05-10T10:29:45.827Z,58.75
2023-05-10T10:32:30.534Z,58.92
2023-05-10T10:34:58.052Z,58.70
2023-05-10T10:37:42.260Z,59.26
2023-05-10T10:40:28.245Z,58.23
2023-05-10T10:42:56.237Z,58.06
2023-05-10T10:45:25.860Z,58.03
2023-05-10T10:48:21.542Z,58.74
2023-05-10T10:50:48.327Z,58.73
2023-05-10T10:53:15.237Z,58.86
2023-05-10T10:55:49.525Z,58.25
2023-05-10T10:58:34.679Z,57.75
2023-05-10T11:01:16.478Z,57.92
2023-05-10T11:04:16.332Z,57.58
2023-05-10T11:06:43.639Z,57.19
2023-05-10T11:09:12.554Z,56.89
2023-05-10T11:11:59.360Z,57.00
2023-05-10T11:14:26.441Z,56.11
2023-05-10T11:16:53.488Z,56.12
2023-05-10T11:19:20.617Z,56.18
2023-05-10T11:21:52.914Z,56.17
2023-05-10T11:24:21.622Z,55.73
2023-05-10T11:26:51.040Z,56.36
2023-05-10T11:29:17.893Z,57.45
2023-05-10T11:31:46.463Z,56.27
2023-05-10T11:34:23.937Z,55.89
2023-05-10T11:36:54.906Z,56.62
2023-05-10T11:39:22.576Z,56.57
2023-05-10T11:41:50.531Z,56.20
2023-05-10T11:44:17.465Z,56.36
2023-05-10T11:46:44.327Z,56.59
2023-05-10T11:49:11.831Z,56.39
2023-05-10T11:51:38.541Z,57.88
2023-05-10T11:54:10.561Z,56.24
2023-05-10T11:56:38.792Z,55.99
2023-05-10T11:59:05.611Z,55.94
2023-05-10T12:01:32.778Z,56.66
2023-05-10T12:04:01.421Z,56.68
2023-05-10T12:06:30.612Z,56.78
2023-05-10T12:08:57.942Z,57.27
2023-05-10T12:11:29.501Z,57.04
2023-05-10T12:13:57.546Z,56.53
2023-05-10T12:16:29.153Z,55.73
2023-05-10T12:19:00.953Z,55.59
2023-05-10T12:21:29.398Z,55.58
2023-05-10T12:24:01.338Z,55.10
2023-05-10T12:26:29.155Z,55.28
2023-05-10T12:29:12.225Z,55.02
2023-05-10T12:31:59.726Z,56.03
2023-05-10T12:34:36.037Z,55.33
2023-05-10T12:37:04.461Z,55.39
2023-05-10T12:39:45.790Z,56.13
2023-05-10T12:42:12.948Z,55.41
2023-05-10T12:44:40.878Z,55.44
2023-05-10T12:47:07.871Z,56.34
2023-05-10T12:49:35.133Z,56.52
2023-05-10T12:52:02.264Z,56.73
2023-05-10T12:54:29.056Z,55.87
2023-05-10T12:56:55.879Z,56.94
2023-05-10T12:59:23.881Z,57.10
2023-05-10T13:01:50.786Z,57.03
2023-05-10T13:04:17.539Z,58.36
2023-05-10T13:06:44.556Z,58.08
2023-05-10T13:09:11.435Z,57.72
2023-05-10T13:11:38.509Z,57.07
2023-05-10T13:14:05.385Z,57.39
2023-05-10T13:16:32.693Z,57.65
2023-05-10T13:18:59.780Z,56.78
2023-05-10T13:21:26.825Z,56.90
2023-05-10T13:23:54.420Z,56.79
2023-05-10T13:26:21.385Z,56.86
2023-05-10T13:28:49.898Z,55.85
2023-05-10T13:31:16.844Z,55.79
2023-05-10T13:33:43.656Z,55.41
2023-05-10T13:36:10.448Z,55.63
2023-05-10T13:38:37.484Z,55.99
2023-05-10T13:41:04.465Z,55.65
2023-05-10T13:43:31.248Z,55.20
2023-05-10T13:45:58.241Z,53.96
2023-05-10T13:48:24.988Z,53.01
2023-05-10T13:50:51.748Z,52.36
2023-05-10T13:53:18.514Z,52.19
2023-05-10T13:55:45.383Z,51.82
2023-05-10T13:58:12.454Z,52.51
2023-05-10T14:00:39.339Z,52.38
2023-05-10T14:03:07.917Z,52.05
2023-05-10T14:05:34.690Z,52.41
2023-05-10T14:08:01.444Z,52.49
2023-05-10T14:10:28.248Z,53.67
2023-05-10T14:12:55.117Z,53.61
2023-05-10T14:15:22.087Z,53.71
2023-05-10T14:17:49.034Z,53.75
2023-05-10T14:20:16.096Z,53.62
2023-05-10T14:22:42.824Z,54.64
2023-05-10T14:25:10.258Z,53.87
2023-05-10T14:27:37.538Z,54.25
2023-05-10T14:30:04.656Z,53.87
2023-05-10T14:32:33.053Z,53.92
2023-05-10T14:35:00.600Z,53.28
2023-05-10T14:37:27.841Z,53.44
2023-05-10T14:39:55.053Z,52.79
2023-05-10T14:42:22.291Z,52.68
2023-05-10T14:44:49.023Z,52.74
2023-05-10T14:47:15.802Z,52.24
2023-05-10T14:49:42.504Z,52.67
2023-05-10T14:52:09.262Z,53.16
2023-05-10T14:54:36.160Z,53.72
2023-05-10T14:57:03.395Z,53.53
2023-05-10T14:59:30.182Z,53.58
2023-05-10T15:01:57.322Z,53.58
2023-05-10T15:04:25.959Z,53.49
2023-05-10T15:07:00.185Z,54.23
2023-05-10T15:09:28.560Z,54.40
2023-05-10T15:11:56.248Z,53.97
2023-05-10T15:14:23.841Z,53.58
2023-05-10T15:16:50.808Z,54.34
2023-05-10T15:19:17.721Z,56.06
2023-05-10T15:21:45.632Z,54.73
2023-05-10T15:24:12.394Z,54.04
2023-05-10T15:26:39.118Z,54.16
2023-05-10T15:29:05.888Z,54.29
2023-05-10T15:31:32.798Z,53.24
2023-05-10T15:34:02.435Z,54.39
2023-05-10T15:36:29.157Z,54.46
2023-05-10T15:38:55.929Z,54.27
2023-05-10T15:41:22.711Z,53.23
2023-05-10T15:43:49.470Z,53.64
2023-05-10T15:46:16.265Z,54.27
2023-05-10T15:48:43.543Z,54.45
2023-05-10T15:51:10.326Z,53.14
2023-05-10T15:53:37.127Z,53.77
2023-05-10T15:56:04.135Z,53.15
2023-05-10T15:58:31.059Z,53.26
2023-05-10T16:00:57.986Z,52.53
2023-05-10T16:03:24.961Z,53.42
2023-05-10T16:05:52.054Z,52.19
2023-05-10T16:08:18.738Z,52.44
2023-05-10T16:10:45.718Z,52.93
2023-05-10T16:13:12.563Z,52.79
2023-05-10T16:15:39.269Z,53.65
2023-05-10T16:18:06.220Z,53.60
2023-05-10T16:20:33.099Z,53.15
2023-05-10T16:23:05.397Z,53.01
2023-05-10T16:25:33.438Z,54.07
2023-05-10T16:28:00.880Z,54.24
2023-05-10T16:30:30.152Z,53.75
2023-05-10T16:32:58.071Z,53.42
2023-05-10T16:35:24.926Z,53.53
2023-05-10T16:37:54.559Z,53.37
2023-05-10T16:40:21.742Z,52.49
2023-05-10T16:42:48.479Z,52.15
2023-05-10T16:45:16.456Z,52.38
2023-05-10T16:47:43.488Z,51.28
2023-05-10T16:50:10.555Z,51.88
2023-05-10T16:52:37.497Z,53.45
2023-05-10T16:55:05.210Z,52.31
2023-05-10T16:57:33.032Z,51.79
2023-05-10T16:59:59.916Z,52.31
2023-05-10T17:02:26.915Z,51.87
2023-05-10T17:04:56.088Z,52.14
2023-05-10T17:07:25.405Z,52.12
2023-05-10T17:09:53.103Z,52.04
2023-05-10T17:12:19.920Z,52.60
2023-05-10T17:14:47.153Z,52.13
2023-05-10T17:17:13.894Z,52.87
2023-05-10T17:19:40.574Z,52.38
2023-05-10T17:22:07.435Z,53.41
2023-05-10T17:24:34.138Z,52.38
2023-05-10T17:27:00.997Z,52.62
2023-05-10T17:29:28.674Z,52.81
2023-05-10T17:31:55.609Z,53.41
2023-05-10T17:34:22.431Z,54.17
2023-05-10T17:36:49.286Z,53.62
2023-05-10T17:39:16.257Z,53.44
2023-05-10T17:41:43.076Z,54.11
2023-05-10T17:44:09.886Z,54.50
2023-05-10T17:46:36.860Z,53.72
2023-05-10T17:49:03.601Z,53.84
2023-05-10T17:51:30.426Z,53.36
2023-05-10T17:53:57.198Z,53.55
2023-05-10T17:56:24.486Z,53.79
2023-05-10T17:58:51.265Z,54.45
2023-05-10T18:01:18.132Z,55.71
2023-05-10T18:03:44.845Z,54.46
2023-05-10T18:06:11.685Z,55.34
2023-05-10T18:08:38.507Z,54.86
2023-05-10T18:11:05.399Z,55.51
2023-05-10T18:13:32.128Z,55.53
2023-05-10T18:15:59.454Z,55.37
2023-05-10T18:18:26.288Z,55.52
2023-05-10T18:20:58.023Z,55.62
2023-05-10T18:23:25.018Z,55.21
2023-05-10T18:25:52.116Z,54.46
2023-05-10T18:28:18.886Z,54.31
2023-05-10T18:30:45.768Z,55.19
2023-05-10T18:33:12.684Z,55.62
2023-05-10T18:35:43.812Z,55.62
2023-05-10T18:38:11.048Z,56.03
2023-05-10T18:40:37.787Z,55.38
2023-05-10T18:43:04.726Z,56.28
2023-05-10T18:45:31.656Z,56.16
2023-05-10T18:47:58.373Z,55.34
2023-05-10T18:50:25.219Z,55.30
2023-05-10T18:52:52.286Z,55.28
2023-05-10T18:55:19.877Z,55.86
2023-05-10T18:57:47.054Z,55.36
2023-05-10T19:00:16.653Z,56.29
2023-05-10T19:02:43.451Z,55.62
2023-05-10T19:05:10.508Z,55.61
2023-05-10T19:07:37.284Z,55.33
2023-05-10T19:10:04.300Z,55.79
2023-05-10T19:12:31.144Z,56.03
2023-05-10T19:14:59.245Z,56.27
2023-05-10T19:17:26.455Z,56.66
2023-05-10T19:19:54.386Z,56.93
2023-05-10T19:22:36.059Z,56.92
2023-05-10T19:25:09.198Z,57.12
2023-05-10T19:27:36.673Z,56.73
2023-05-10T19:30:03.648Z,56.84
2023-05-10T19:32:30.406Z,56.91
2023-05-10T19:34:57.156Z,56.69
2023-05-10T19:37:25.683Z,57.10
2023-05-10T19:39:52.382Z,57.00
2023-05-10T19:42:20.648Z,56.72
2023-05-10T19:44:48.067Z,56.92
2023-05-10T19:47:15.141Z,57.21
2023-05-10T19:49:42.146Z,56.88
2023-05-10T19:52:10.591Z,57.25
2023-05-10T19:54:38.184Z,57.53
2023-05-10T19:57:04.938Z,57.62
2023-05-10T19:59:31.627Z,57.81
2023-05-10T20:01:58.352Z,57.43
2023-05-10T20:04:25.167Z,57.87
2023-05-10T20:06:51.847Z,58.12
2023-05-10T20:09:18.602Z,58.16
2023-05-10T20:11:45.379Z,57.84
2023-05-10T20:14:12.165Z,57.58
2023-05-10T20:16:38.993Z,57.17
2023-05-10T20:19:06.147Z,57.22
2023-05-10T20:21:33.572Z,57.22
2023-05-10T20:24:00.321Z,56.54
2023-05-10T20:26:27.123Z,56.48
2023-05-10T20:28:53.980Z,56.19
2023-05-10T20:31:20.801Z,56.45
2023-05-10T20:33:47.554Z,56.61
2023-05-10T20:36:15.000Z,56.66
2023-05-10T20:38:41.878Z,56.99
2023-05-10T20:41:08.662Z,56.65
2023-05-10T20:43:35.772Z,56.63
2023-05-10T20:46:05.434Z,56.79
2023-05-10T20:48:33.115Z,56.33
2023-05-10T20:51:02.514Z,56.33
2023-05-10T20:53:29.576Z,56.47
2023-05-10T20:55:56.429Z,56.92
2023-05-10T20:58:23.151Z,57.29
2023-05-10T21:00:49.896Z,57.28
2023-05-10T21:03:16.743Z,57.57
2023-05-10T21:05:43.520Z,57.75
2023-05-10T21:08:10.453Z,58.22
2023-05-10T21:10:37.153Z,58.22
2023-05-10T21:13:03.989Z,58.22
2023-05-10T21:15:30.762Z,58.14
2023-05-10T21:17:58.496Z,58.09
2023-05-10T21:20:25.377Z,58.00
2023-05-10T21:22:52.191Z,57.89
2023-05-10T21:25:19.144Z,58.43
2023-05-10T21:27:46.039Z,58.57
2023-05-10T21:30:12.952Z,58.73
2023-05-10T21:32:39.893Z,58.74
2023-05-10T21:35:07.302Z,58.53
2023-05-10T21:37:34.169Z,58.75
2023-05-10T21:40:01.196Z,58.58
2023-05-10T21:42:28.008Z,58.36
2023-05-10T21:44:54.862Z,58.43
2023-05-10T21:47:21.808Z,58.56
2023-05-10T21:49:48.546Z,58.57
2023-05-10T21:52:15.303Z,58.46
2023-05-10T21:54:42.094Z,58.70
2023-05-10T21:57:08.835Z,58.70
2023-05-10T21:59:35.666Z,58.79
2023-05-10T22:02:02.508Z,59.11
2023-05-10T22:04:29.268Z,58.97
2023-05-10T22:06:56.061Z,59.08
2023-05-10T22:09:24.353Z,58.89
2023-05-10T22:11:51.339Z,58.84
2023-05-10T22:14:18.141Z,59.07
2023-05-10T22:16:44.889Z,59.11
2023-05-10T22:19:11.730Z,59.29
2023-05-10T22:21:38.464Z,59.07
2023-05-10T22:24:05.372Z,59.34
2023-05-10T22:26:32.226Z,59.46
2023-05-10T22:28:58.946Z,59.46
2023-05-10T22:31:26.701Z,59.51
2023-05-10T22:33:53.535Z,59.65
2023-05-10T22:36:20.415Z,59.56
2023-05-10T22:38:47.277Z,59.37
2023-05-10T22:41:14.005Z,59.46
2023-05-10T22:43:40.794Z,59.59
2023-05-10T22:46:07.609Z,59.29
2023-05-10T22:48:35.673Z,58.94
2023-05-10T22:51:02.418Z,58.80
2023-05-10T22:53:29.192Z,58.76
2023-05-10T22:55:56.242Z,58.83
2023-05-10T22:58:23.108Z,59.05
2023-05-10T23:00:49.958Z,58.87
2023-05-10T23:03:18.099Z,59.08
2023-05-10T23:05:44.871Z,58.85
2023-05-10T23:08:11.715Z,59.02
2023-05-10T23:10:39.098Z,59.05
2023-05-10T23:13:06.348Z,58.84
2023-05-10T23:15:33.208Z,58.67
2023-05-10T23:18:03.064Z,58.84
2023-05-10T23:20:29.931Z,58.68
2023-05-10T23:22:56.772Z,58.79
2023-05-10T23:25:23.530Z,58.69
2023-05-10T23:27:50.256Z,59.06
2023-05-10T23:30:17.297Z,58.89
2023-05-10T23:32:44.258Z,58.89
2023-05-10T23:35:11.245Z,58.80
2023-05-10T23:37:38.098Z,58.78
2023-05-10T23:40:05.508Z,59.12
2023-05-10T23:42:32.702Z,59.00
2023-05-10T23:44:59.546Z,58.94
2023-05-10T23:47:26.654Z,58.74
2023-05-10T23:49:53.533Z,58.67
2023-05-10T23:52:24.911Z,58.48
2023-05-10T23:54:52.185Z,58.42
2023-05-10T23:57:19.385Z,58.04
2023-05-10T23:59:46.590Z,58.20
